sensor_id;sensor_type;location;lat;lon;timestamp;pressure;altitude;pressure_sealevel;temperature;humidity
49104;BME280;34915;52.926;11.116;2022-12-18T00:00:46;103104.13;;;-5.59;100.00
49104;BME280;34915;52.926;11.116;2022-12-18T00:03:15;103104.81;;;-5.64;100.00
49104;BME280;34915;52.926;11.116;2022-12-18T00:05:50;103107.16;;;-5.72;100.00
49104;BME280;34915;52.926;11.116;2022-12-18T00:08:16;103113.13;;;-5.73;100.00
49104;BME280;34915;52.926;11.116;2022-12-18T00:10:42;103117.31;;;-5.78;100.00
49104;BME280;34915;52.926;11.116;2022-12-18T00:13:08;103122.28;;;-5.84;100.00
49104;BME280;34915;52.926;11.116;2022-12-18T00:15:35;103123.81;;;-5.88;100.00
49104;BME280;34915;52.926;11.116;2022-12-18T00:18:01;103134.75;;;-5.95;100.00
49104;BME280;34915;52.926;11.116;2022-12-18T00:20:26;103131.97;;;-6.01;100.00
49104;BME280;34915;52.926;11.116;2022-12-18T00:22:52;103121.38;;;-6.09;100.00
49104;BME280;34915;52.926;11.116;2022-12-18T00:25:18;103119.72;;;-6.08;100.00
49104;BME280;34915;52.926;11.116;2022-12-18T00:27:44;103117.75;;;-6.15;100.00
49104;BME280;34915;52.926;11.116;2022-12-18T00:30:10;103108.94;;;-6.20;100.00
49104;BME280;34915;52.926;11.116;2022-12-18T00:32:36;103118.19;;;-6.27;100.00
49104;BME280;34915;52.926;11.116;2022-12-18T00:35:03;103118.94;;;-6.29;100.00
49104;BME280;34915;52.926;11.116;2022-12-18T00:37:28;103127.53;;;-6.30;100.00
49104;BME280;34915;52.926;11.116;2022-12-18T00:39:54;103118.19;;;-6.27;100.00
49104;BME280;34915;52.926;11.116;2022-12-18T00:42:19;103117.22;;;-6.30;100.00
49104;BME280;34915;52.926;11.116;2022-12-18T00:45:08;103113.59;;;-6.35;100.00
49104;BME280;34915;52.926;11.116;2022-12-18T00:47:34;103116.66;;;-6.45;100.00
49104;BME280;34915;52.926;11.116;2022-12-18T00:49:59;103116.56;;;-6.48;100.00
49104;BME280;34915;52.926;11.116;2022-12-18T00:52:25;103124.25;;;-6.49;100.00
49104;BME280;34915;52.926;11.116;2022-12-18T00:54:50;103126.56;;;-6.57;100.00
49104;BME280;34915;52.926;11.116;2022-12-18T00:57:16;103125.69;;;-6.57;100.00
49104;BME280;34915;52.926;11.116;2022-12-18T00:59:41;103130.72;;;-6.60;100.00
49104;BME280;34915;52.926;11.116;2022-12-18T01:02:07;103128.75;;;-6.67;100.00
49104;BME280;34915;52.926;11.116;2022-12-18T01:04:34;103144.25;;;-6.66;100.00
49104;BME280;34915;52.926;11.116;2022-12-18T01:07:00;103144.97;;;-6.70;100.00
49104;BME280;34915;52.926;11.116;2022-12-18T01:09:26;103152.53;;;-6.74;100.00
49104;BME280;34915;52.926;11.116;2022-12-18T01:11:51;103160.06;;;-6.79;100.00
49104;BME280;34915;52.926;11.116;2022-12-18T01:14:17;103150.56;;;-6.81;100.00
49104;BME280;34915;52.926;11.116;2022-12-18T01:16:43;103158.09;;;-6.85;100.00
49104;BME280;34915;52.926;11.116;2022-12-18T01:19:08;103171.69;;;-6.89;100.00
49104;BME280;34915;52.926;11.116;2022-12-18T01:21:34;103180.22;;;-6.90;100.00
49104;BME280;34915;52.926;11.116;2022-12-18T01:24:02;103174.97;;;-6.93;100.00
49104;BME280;34915;52.926;11.116;2022-12-18T01:26:27;103178.56;;;-6.88;100.00
49104;BME280;34915;52.926;11.116;2022-12-18T01:28:55;103171.81;;;-6.86;100.00
49104;BME280;34915;52.926;11.116;2022-12-18T01:31:24;103171.69;;;-6.89;100.00
49104;BME280;34915;52.926;11.116;2022-12-18T01:33:51;103164.88;;;-6.87;100.00
49104;BME280;34915;52.926;11.116;2022-12-18T01:36:26;103169.81;;;-6.93;100.00
49104;BME280;34915;52.926;11.116;2022-12-18T01:38:52;103175.66;;;-6.97;100.00
49104;BME280;34915;52.926;11.116;2022-12-18T01:41:21;103182.16;;;-7.07;100.00
49104;BME280;34915;52.926;11.116;2022-12-18T01:43:57;103186.06;;;-7.16;100.00
49104;BME280;34915;52.926;11.116;2022-12-18T01:46:24;103175.53;;;-7.22;100.00
49104;BME280;34915;52.926;11.116;2022-12-18T01:48:53;103168.53;;;-7.26;100.00
49104;BME280;34915;52.926;11.116;2022-12-18T01:51:21;103174.63;;;-7.24;100.00
49104;BME280;34915;52.926;11.116;2022-12-18T01:53:46;103177.19;;;-7.24;100.00
49104;BME280;34915;52.926;11.116;2022-12-18T01:56:15;103170.38;;;-7.22;100.00
49104;BME280;34915;52.926;11.116;2022-12-18T02:01:14;103163.50;;;-7.23;100.00
49104;BME280;34915;52.926;11.116;2022-12-18T02:03:42;103150.75;;;-7.20;100.00
49104;BME280;34915;52.926;11.116;2022-12-18T02:06:28;103154.09;;;-7.23;100.00
49104;BME280;34915;52.926;11.116;2022-12-18T02:09:11;103150.59;;;-7.25;100.00
49104;BME280;34915;52.926;11.116;2022-12-18T02:19:52;103161.63;;;-7.27;100.00
49104;BME280;34915;52.926;11.116;2022-12-18T02:27:32;103142.81;;;-7.26;100.00
49104;BME280;34915;52.926;11.116;2022-12-18T02:30:00;103138.47;;;-7.27;100.00
49104;BME280;34915;52.926;11.116;2022-12-18T02:32:33;103146.06;;;-7.30;100.00
49104;BME280;34915;52.926;11.116;2022-12-18T02:35:01;103154.59;;;-7.31;100.00
49104;BME280;34915;52.926;11.116;2022-12-18T02:37:28;103149.22;;;-7.37;100.00
49104;BME280;34915;52.926;11.116;2022-12-18T02:39:56;103166.19;;;-7.42;100.00
49104;BME280;34915;52.926;11.116;2022-12-18T02:42:24;103160.78;;;-7.48;100.00
49104;BME280;34915;52.926;11.116;2022-12-18T02:44:51;103163.38;;;-7.48;100.00
49104;BME280;34915;52.926;11.116;2022-12-18T02:47:19;103164.19;;;-7.49;100.00
49104;BME280;34915;52.926;11.116;2022-12-18T02:52:42;103172.06;;;-7.44;100.00
49104;BME280;34915;52.926;11.116;2022-12-18T02:58:29;103176.72;;;-7.56;100.00
49104;BME280;34915;52.926;11.116;2022-12-18T03:01:03;103162.84;;;-7.60;100.00
49104;BME280;34915;52.926;11.116;2022-12-18T03:03:50;103172.34;;;-7.59;100.00
49104;BME280;34915;52.926;11.116;2022-12-18T03:06:40;103170.44;;;-7.63;100.00
49104;BME280;34915;52.926;11.116;2022-12-18T03:09:11;103183.91;;;-7.70;100.00
49104;BME280;34915;52.926;11.116;2022-12-18T03:11:45;103180.25;;;-7.75;100.00
49104;BME280;34915;52.926;11.116;2022-12-18T03:14:33;103190.16;;;-7.83;100.00
49104;BME280;34915;52.926;11.116;2022-12-18T03:17:02;103177.97;;;-7.87;100.00
49104;BME280;34915;52.926;11.116;2022-12-18T03:19:30;103193.16;;;-7.93;100.00
49104;BME280;34915;52.926;11.116;2022-12-18T03:21:58;103181.88;;;-7.97;100.00
49104;BME280;34915;52.926;11.116;2022-12-18T03:24:28;103184.25;;;-8.01;100.00
49104;BME280;34915;52.926;11.116;2022-12-18T03:27:00;103196.19;;;-8.02;100.00
49104;BME280;34915;52.926;11.116;2022-12-18T03:29:38;103192.75;;;-8.02;100.00
49104;BME280;34915;52.926;11.116;2022-12-18T03:32:11;103184.13;;;-8.04;100.00
49104;BME280;34915;52.926;11.116;2022-12-18T03:34:41;103185.59;;;-8.09;100.00
49104;BME280;34915;52.926;11.116;2022-12-18T03:37:08;103189.13;;;-8.07;100.00
49104;BME280;34915;52.926;11.116;2022-12-18T03:39:34;103187.50;;;-8.05;100.00
49104;BME280;34915;52.926;11.116;2022-12-18T03:52:30;103193.38;;;-8.28;100.00
49104;BME280;34915;52.926;11.116;2022-12-18T03:54:58;103195.81;;;-8.31;100.00
49104;BME280;34915;52.926;11.116;2022-12-18T03:57:28;103189.72;;;-8.33;100.00
49104;BME280;34915;52.926;11.116;2022-12-18T03:59:58;103185.41;;;-8.34;100.00
49104;BME280;34915;52.926;11.116;2022-12-18T04:02:26;103182.16;;;-8.30;100.00
49104;BME280;34915;52.926;11.116;2022-12-18T04:04:57;103195.13;;;-8.27;100.00
49104;BME280;34915;52.926;11.116;2022-12-18T04:07:24;103185.00;;;-8.24;100.00
49104;BME280;34915;52.926;11.116;2022-12-18T04:09:53;103181.63;;;-8.23;100.00
49104;BME280;34915;52.926;11.116;2022-12-18T04:12:20;103188.50;;;-8.22;100.00
49104;BME280;34915;52.926;11.116;2022-12-18T04:14:45;103198.75;;;-8.22;100.00
49104;BME280;34915;52.926;11.116;2022-12-18T04:17:11;103193.63;;;-8.22;100.00
49104;BME280;34915;52.926;11.116;2022-12-18T04:19:36;103186.88;;;-8.20;100.00
49104;BME280;34915;52.926;11.116;2022-12-18T04:22:02;103204.03;;;-8.19;100.00
49104;BME280;34915;52.926;11.116;2022-12-18T04:24:27;103205.00;;;-8.17;100.00
49104;BME280;34915;52.926;11.116;2022-12-18T04:26:53;103199.88;;;-8.17;100.00
49104;BME280;34915;52.926;11.116;2022-12-18T04:29:19;103198.91;;;-8.19;100.00
49104;BME280;34915;52.926;11.116;2022-12-18T04:31:45;103198.91;;;-8.19;100.00
49104;BME280;34915;52.926;11.116;2022-12-18T04:34:12;103198.75;;;-8.22;100.00
49104;BME280;34915;52.926;11.116;2022-12-18T04:36:38;103204.69;;;-8.25;100.00
49104;BME280;34915;52.926;11.116;2022-12-18T04:39:03;103191.00;;;-8.24;100.00
49104;BME280;34915;52.926;11.116;2022-12-18T04:41:29;103185.00;;;-8.24;100.00
49104;BME280;34915;52.926;11.116;2022-12-18T04:43:54;103181.63;;;-8.23;100.00
49104;BME280;34915;52.926;11.116;2022-12-18T04:46:20;103181.75;;;-8.20;100.00
49104;BME280;34915;52.926;11.116;2022-12-18T04:48:46;103193.16;;;-8.14;100.00
49104;BME280;34915;52.926;11.116;2022-12-18T04:51:12;103187.25;;;-8.11;100.00
49104;BME280;34915;52.926;11.116;2022-12-18T04:53:37;103189.38;;;-8.01;100.00
49104;BME280;34915;52.926;11.116;2022-12-18T04:56:08;103182.59;;;-7.99;100.00
49104;BME280;34915;52.926;11.116;2022-12-18T04:58:34;103188.00;;;-7.93;100.00
49104;BME280;34915;52.926;11.116;2022-12-18T05:01:00;103189.38;;;-8.01;100.00
49104;BME280;34915;52.926;11.116;2022-12-18T05:03:26;103195.88;;;-8.09;100.00
49104;BME280;34915;52.926;11.116;2022-12-18T05:05:52;103200.91;;;-8.12;100.00
49104;BME280;34915;52.926;11.116;2022-12-18T05:08:18;103190.66;;;-8.12;100.00
49104;BME280;34915;52.926;11.116;2022-12-18T05:10:43;103202.44;;;-8.17;100.00
49104;BME280;34915;52.926;11.116;2022-12-18T05:13:09;103205.66;;;-8.21;100.00
49104;BME280;34915;52.926;11.116;2022-12-18T05:15:35;103208.91;;;-8.25;100.00
49104;BME280;34915;52.926;11.116;2022-12-18T05:18:04;103213.91;;;-8.28;100.00
49104;BME280;34915;52.926;11.116;2022-12-18T05:20:30;103200.13;;;-8.30;100.00
49104;BME280;34915;52.926;11.116;2022-12-18T05:22:56;103198.38;;;-8.31;100.00
49104;BME280;34915;52.926;11.116;2022-12-18T05:25:23;103205.16;;;-8.33;100.00
49104;BME280;34915;52.926;11.116;2022-12-18T05:27:48;103213.66;;;-8.34;100.00
49104;BME280;34915;52.926;11.116;2022-12-18T05:30:15;103196.63;;;-8.32;100.00
49104;BME280;34915;52.926;11.116;2022-12-18T05:32:41;103192.22;;;-8.34;100.00
49104;BME280;34915;52.926;11.116;2022-12-18T05:35:08;103198.38;;;-8.31;100.00
49104;BME280;34915;52.926;11.116;2022-12-18T05:37:34;103206.91;;;-8.32;100.00
49104;BME280;34915;52.926;11.116;2022-12-18T05:40:00;103205.16;;;-8.33;100.00
49104;BME280;34915;52.926;11.116;2022-12-18T05:42:26;103200.13;;;-8.30;100.00
49104;BME280;34915;52.926;11.116;2022-12-18T05:44:52;103198.38;;;-8.31;100.00
49104;BME280;34915;52.926;11.116;2022-12-18T05:47:17;103205.16;;;-8.33;100.00
49104;BME280;34915;52.926;11.116;2022-12-18T05:49:43;103215.41;;;-8.33;100.00
49104;BME280;34915;52.926;11.116;2022-12-18T05:52:08;103216.16;;;-8.35;100.00
49104;BME280;34915;52.926;11.116;2022-12-18T05:54:34;103223.13;;;-8.14;100.00
49104;BME280;34915;52.926;11.116;2022-12-18T05:57:00;103216.09;;;-8.18;100.00
49104;BME280;34915;52.926;11.116;2022-12-18T05:59:26;103217.59;;;-8.23;100.00
49104;BME280;34915;52.926;11.116;2022-12-18T06:01:51;103213.13;;;-8.27;100.00
49104;BME280;34915;52.926;11.116;2022-12-18T06:04:17;103225.44;;;-8.20;100.00
49104;BME280;34915;52.926;11.116;2022-12-18T06:06:42;103227.56;;;-8.10;100.00
49104;BME280;34915;52.926;11.116;2022-12-18T06:09:08;103229.00;;;-8.17;100.00
49104;BME280;34915;52.926;11.116;2022-12-18T06:11:36;103233.00;;;-8.23;100.00
49104;BME280;34915;52.926;11.116;2022-12-18T06:14:03;103235.41;;;-8.07;100.00
49104;BME280;34915;52.926;11.116;2022-12-18T06:16:30;103236.63;;;-8.18;100.00
49104;BME280;34915;52.926;11.116;2022-12-18T06:18:56;103244.09;;;-8.24;100.00
49104;BME280;34915;52.926;11.116;2022-12-18T06:21:22;103243.00;;;-8.29;100.00
49104;BME280;34915;52.926;11.116;2022-12-18T06:23:47;103231.50;;;-8.37;100.00
49104;BME280;34915;52.926;11.116;2022-12-18T06:26:13;103236.50;;;-8.40;100.00
49104;BME280;34915;52.926;11.116;2022-12-18T06:28:39;103243.28;;;-8.42;100.00
49104;BME280;34915;52.926;11.116;2022-12-18T06:31:06;103248.34;;;-8.43;100.00
49104;BME280;34915;52.926;11.116;2022-12-18T06:33:32;103252.31;;;-8.50;100.00
49104;BME280;34915;52.926;11.116;2022-12-18T06:36:05;103245.56;;;-8.48;100.00
49104;BME280;34915;52.926;11.116;2022-12-18T06:38:33;103249.66;;;-8.51;100.00
49104;BME280;34915;52.926;11.116;2022-12-18T06:40:59;103246.91;;;-8.56;100.00
49104;BME280;34915;52.926;11.116;2022-12-18T06:43:25;103257.16;;;-8.56;100.00
49104;BME280;34915;52.926;11.116;2022-12-18T06:45:50;103252.94;;;-8.55;100.00
49104;BME280;34915;52.926;11.116;2022-12-18T06:48:21;103258.66;;;-8.61;100.00
49104;BME280;34915;52.926;11.116;2022-12-18T06:50:46;103258.53;;;-8.64;100.00
49104;BME280;34915;52.926;11.116;2022-12-18T06:53:12;103260.06;;;-8.67;100.00
49104;BME280;34915;52.926;11.116;2022-12-18T06:55:37;103259.03;;;-8.71;100.00
49104;BME280;34915;52.926;11.116;2022-12-18T06:58:03;103271.00;;;-8.71;100.00
49104;BME280;34915;52.926;11.116;2022-12-18T07:00:29;103275.25;;;-8.72;100.00
49104;BME280;34915;52.926;11.116;2022-12-18T07:02:54;103271.75;;;-8.74;100.00
49104;BME280;34915;52.926;11.116;2022-12-18T07:05:20;103281.88;;;-8.77;100.00
49104;BME280;34915;52.926;11.116;2022-12-18T07:07:45;103292.00;;;-8.79;100.00
49104;BME280;34915;52.926;11.116;2022-12-18T07:10:11;103303.72;;;-8.84;100.00
49104;BME280;34915;52.926;11.116;2022-12-18T07:12:36;103303.56;;;-8.87;100.00
49104;BME280;34915;52.926;11.116;2022-12-18T07:15:02;103300.22;;;-8.86;100.00
49104;BME280;34915;52.926;11.116;2022-12-18T07:17:28;103300.06;;;-8.89;100.00
49104;BME280;34915;52.926;11.116;2022-12-18T07:19:55;103304.91;;;-8.95;100.00
49104;BME280;34915;52.926;11.116;2022-12-18T07:22:20;103299.78;;;-8.95;100.00
49104;BME280;34915;52.926;11.116;2022-12-18T07:24:49;103316.03;;;-8.95;100.00
49104;BME280;34915;52.926;11.116;2022-12-18T07:27:15;103318.41;;;-8.99;100.00
49104;BME280;34915;52.926;11.116;2022-12-18T07:29:40;103318.41;;;-8.99;100.00
49104;BME280;34915;52.926;11.116;2022-12-18T07:32:06;103323.38;;;-9.02;100.00
49104;BME280;34915;52.926;11.116;2022-12-18T07:34:32;103322.59;;;-9.01;100.00
49104;BME280;34915;52.926;11.116;2022-12-18T07:36:58;103331.44;;;-8.95;100.00
49104;BME280;34915;52.926;11.116;2022-12-18T07:39:23;103330.72;;;-8.92;100.00
49104;BME280;34915;52.926;11.116;2022-12-18T07:41:49;103326.59;;;-8.89;100.00
49104;BME280;34915;52.926;11.116;2022-12-18T07:44:35;103332.94;;;-8.82;100.00
49104;BME280;34915;52.926;11.116;2022-12-18T07:47:00;103335.72;;;-8.78;100.00
49104;BME280;34915;52.926;11.116;2022-12-18T07:49:26;103347.00;;;-8.75;100.00
49104;BME280;34915;52.926;11.116;2022-12-18T07:51:54;103342.00;;;-8.72;100.00
49104;BME280;34915;52.926;11.116;2022-12-18T07:54:20;103340.25;;;-8.73;100.00
49104;BME280;34915;52.926;11.116;2022-12-18T07:56:45;103342.84;;;-8.73;100.00
49104;BME280;34915;52.926;11.116;2022-12-18T07:59:11;103351.31;;;-8.74;100.00
49104;BME280;34915;52.926;11.116;2022-12-18T08:01:36;103360.88;;;-8.71;100.00
49104;BME280;34915;52.926;11.116;2022-12-18T08:04:02;103353.44;;;-8.48;100.00
49104;BME280;34915;52.926;11.116;2022-12-18T08:06:31;103357.09;;;-8.43;100.00
49104;BME280;34915;52.926;11.116;2022-12-18T08:08:56;103360.75;;;-8.38;100.00
49104;BME280;34915;52.926;11.116;2022-12-18T08:11:24;103361.34;;;-8.26;100.00
49104;BME280;34915;52.926;11.116;2022-12-18T08:13:50;103351.84;;;-8.08;100.00
49104;BME280;34915;52.926;11.116;2022-12-18T08:16:16;103345.06;;;-8.06;100.00
49104;BME280;34915;52.926;11.116;2022-12-18T08:18:41;103340.78;;;-7.88;100.00
49104;BME280;34915;52.926;11.116;2022-12-18T08:21:12;103344.16;;;-7.89;100.00
49104;BME280;34915;52.926;11.116;2022-12-18T08:23:38;103344.28;;;-7.86;100.00
49104;BME280;34915;52.926;11.116;2022-12-18T08:26:04;103342.50;;;-7.87;100.00
49104;BME280;34915;52.926;11.116;2022-12-18T08:28:29;103349.28;;;-7.89;100.00
49104;BME280;34915;52.926;11.116;2022-12-18T08:30:55;103346.06;;;-7.85;100.00
49104;BME280;34915;52.926;11.116;2022-12-18T08:33:20;103345.22;;;-7.84;100.00
49104;BME280;34915;52.926;11.116;2022-12-18T08:35:46;103341.84;;;-7.83;100.00
49104;BME280;34915;52.926;11.116;2022-12-18T08:38:11;103341.19;;;-7.80;100.00
49104;BME280;34915;52.926;11.116;2022-12-18T08:40:37;103331.28;;;-7.71;100.00
49104;BME280;34915;52.926;11.116;2022-12-18T08:43:03;103329.66;;;-7.69;100.00
49104;BME280;34915;52.926;11.116;2022-12-18T08:45:47;103324.63;;;-7.66;100.00
49104;BME280;34915;52.926;11.116;2022-12-18T08:48:12;103315.16;;;-7.48;100.00
49104;BME280;34915;52.926;11.116;2022-12-18T08:50:38;103308.38;;;-7.46;100.00
49104;BME280;34915;52.926;11.116;2022-12-18T08:53:03;103317.97;;;-7.42;100.00
49104;BME280;34915;52.926;11.116;2022-12-18T08:55:29;103310.75;;;-7.30;100.00
49104;BME280;34915;52.926;11.116;2022-12-18T08:57:55;103312.91;;;-7.20;100.00
49104;BME280;34915;52.926;11.116;2022-12-18T09:00:20;103316.28;;;-7.21;100.00
49104;BME280;34915;52.926;11.116;2022-12-18T09:02:46;103312.38;;;-7.12;100.00
49104;BME280;34915;52.926;11.116;2022-12-18T09:05:11;103299.84;;;-7.04;100.00
49104;BME280;34915;52.926;11.116;2022-12-18T09:07:37;103303.22;;;-7.05;100.00
49104;BME280;34915;52.926;11.116;2022-12-18T09:10:03;103317.41;;;-6.94;100.00
49104;BME280;34915;52.926;11.116;2022-12-18T09:12:28;103314.50;;;-6.82;100.00
49104;BME280;34915;52.926;11.116;2022-12-18T09:14:54;103311.34;;;-6.75;100.00
49104;BME280;34915;52.926;11.116;2022-12-18T09:17:21;103309.94;;;-6.67;100.00
49104;BME280;34915;52.926;11.116;2022-12-18T09:19:47;103316.16;;;-6.62;100.00
49104;BME280;34915;52.926;11.116;2022-12-18T09:22:13;103304.72;;;-6.46;100.00
49104;BME280;34915;52.926;11.116;2022-12-18T09:24:38;103316.28;;;-6.37;100.00
49104;BME280;34915;52.926;11.116;2022-12-18T09:27:04;103310.22;;;-6.39;100.00
49104;BME280;34915;52.926;11.116;2022-12-18T09:29:29;103302.25;;;-6.22;100.00
49104;BME280;34915;52.926;11.116;2022-12-18T09:31:55;103290.16;;;-6.24;100.00
49104;BME280;34915;52.926;11.116;2022-12-18T09:34:20;103287.56;;;-6.24;100.00
49104;BME280;34915;52.926;11.116;2022-12-18T09:36:47;103293.06;;;-6.15;100.00
49104;BME280;34915;52.926;11.116;2022-12-18T09:39:13;103296.91;;;-6.04;100.00
49104;BME280;34915;52.926;11.116;2022-12-18T09:41:51;103293.72;;;-5.97;100.00
49104;BME280;34915;52.926;11.116;2022-12-18T09:44:25;103300.97;;;-5.87;100.00
49104;BME280;34915;52.926;11.116;2022-12-18T09:49:26;103289.53;;;-5.71;100.00
49104;BME280;34915;52.926;11.116;2022-12-18T09:51:58;103289.84;;;-5.62;100.00
49104;BME280;34915;52.926;11.116;2022-12-18T09:54:41;103291.13;;;-5.49;100.00
49104;BME280;34915;52.926;11.116;2022-12-18T09:57:13;103276.63;;;-5.46;100.00
49104;BME280;34915;52.926;11.116;2022-12-18T09:59:40;103271.66;;;-5.40;100.00
49104;BME280;34915;52.926;11.116;2022-12-18T10:02:19;103266.59;;;-5.37;100.00
49104;BME280;34915;52.926;11.116;2022-12-18T10:04:56;103271.47;;;-5.46;100.00
49104;BME280;34915;52.926;11.116;2022-12-18T10:07:34;103275.28;;;-5.35;100.00
49104;BME280;34915;52.926;11.116;2022-12-18T10:10:14;103267.31;;;-5.41;100.00
49104;BME280;34915;52.926;11.116;2022-12-18T10:20:56;103275.34;;;-5.07;100.00
49104;BME280;34915;52.926;11.116;2022-12-18T10:23:37;103279.69;;;-5.06;100.00
49104;BME280;34915;52.926;11.116;2022-12-18T10:26:06;103271.59;;;-4.90;100.00
49104;BME280;34915;52.926;11.116;2022-12-18T10:28:36;103286.09;;;-4.94;100.00
49104;BME280;34915;52.926;11.116;2022-12-18T10:31:05;103283.91;;;-4.84;100.00
49104;BME280;34915;52.926;11.116;2022-12-18T10:33:33;103279.78;;;-4.77;100.00
49104;BME280;34915;52.926;11.116;2022-12-18T10:35:59;103283.91;;;-4.84;100.00
49104;BME280;34915;52.926;11.116;2022-12-18T10:38:28;103284.00;;;-4.81;100.00
49104;BME280;34915;52.926;11.116;2022-12-18T10:41:05;103277.63;;;-4.64;100.00
49104;BME280;34915;52.926;11.116;2022-12-18T10:43:36;103283.72;;;-4.62;100.00
49104;BME280;34915;52.926;11.116;2022-12-18T10:51:00;103293.75;;;-4.43;100.00
49104;BME280;34915;52.926;11.116;2022-12-18T10:53:30;103289.41;;;-4.45;100.00
49104;BME280;34915;52.926;11.116;2022-12-18T10:55:59;103293.56;;;-4.49;100.00
49104;BME280;34915;52.926;11.116;2022-12-18T10:58:26;103283.53;;;-4.40;100.00
49104;BME280;34915;52.926;11.116;2022-12-18T11:01:11;103288.97;;;-4.31;100.00
49104;BME280;34915;52.926;11.116;2022-12-18T11:03:45;103291.09;;;-4.18;100.00
49104;BME280;34915;52.926;11.116;2022-12-18T11:06:13;103294.69;;;-4.13;100.00
49104;BME280;34915;52.926;11.116;2022-12-18T11:08:42;103296.69;;;-4.03;100.00
49104;BME280;34915;52.926;11.116;2022-12-18T11:11:22;103286.34;;;-4.03;100.00
49104;BME280;34915;52.926;11.116;2022-12-18T11:16:24;103269.06;;;-4.04;100.00
49104;BME280;34915;52.926;11.116;2022-12-18T11:18:50;103264.06;;;-3.98;100.00
49104;BME280;34915;52.926;11.116;2022-12-18T11:21:16;103258.97;;;-3.95;100.00
49104;BME280;34915;52.926;11.116;2022-12-18T11:24:00;103256.38;;;-3.95;100.00
49104;BME280;34915;52.926;11.116;2022-12-18T11:26:34;103265.13;;;-3.92;100.00
49104;BME280;34915;52.926;11.116;2022-12-18T11:29:16;103255.38;;;-4.00;100.00
49104;BME280;34915;52.926;11.116;2022-12-18T11:31:42;103243.19;;;-4.04;100.00
49104;BME280;34915;52.926;11.116;2022-12-18T11:34:18;103248.53;;;-3.98;100.00
49104;BME280;34915;52.926;11.116;2022-12-18T11:36:46;103242.63;;;-3.94;100.00
49104;BME280;34915;52.926;11.116;2022-12-18T11:39:18;103248.53;;;-3.98;100.00
49104;BME280;34915;52.926;11.116;2022-12-18T11:42:25;103255.56;;;-3.94;100.00
49104;BME280;34915;52.926;11.116;2022-12-18T11:44:55;103274.50;;;-3.95;100.00
49104;BME280;34915;52.926;11.116;2022-12-18T11:47:40;103269.31;;;-3.95;100.00
49104;BME280;34915;52.926;11.116;2022-12-18T11:53:13;103254.78;;;-3.92;100.00
49104;BME280;34915;52.926;11.116;2022-12-18T11:56:00;103245.19;;;-3.94;100.00
49104;BME280;34915;52.926;11.116;2022-12-18T12:04:26;103238.13;;;-3.69;100.00
49104;BME280;34915;52.926;11.116;2022-12-18T12:09:30;103227.13;;;-3.61;100.00
49104;BME280;34915;52.926;11.116;2022-12-18T12:27:33;103217.63;;;-3.28;100.00
49104;BME280;34915;52.926;11.116;2022-12-18T12:30:27;103210.63;;;-3.32;100.00
49104;BME280;34915;52.926;11.116;2022-12-18T12:38:16;103187.84;;;-3.45;100.00
49104;BME280;34915;52.926;11.116;2022-12-18T12:40:49;103192.94;;;-3.48;100.00
49104;BME280;34915;52.926;11.116;2022-12-18T12:43:41;103187.75;;;-3.48;100.00
49104;BME280;34915;52.926;11.116;2022-12-18T12:46:13;103174.81;;;-3.48;100.00
49104;BME280;34915;52.926;11.116;2022-12-18T12:48:55;103167.91;;;-3.47;100.00
49104;BME280;34915;52.926;11.116;2022-12-18T12:51:26;103167.13;;;-3.45;100.00
49104;BME280;34915;52.926;11.116;2022-12-18T12:53:54;103165.81;;;-3.28;100.00
49104;BME280;34915;52.926;11.116;2022-12-18T12:56:22;103159.03;;;-3.23;100.00
49104;BME280;34915;52.926;11.116;2022-12-18T13:01:35;103143.47;;;-3.23;100.00
49104;BME280;34915;52.926;11.116;2022-12-18T13:04:08;103141.72;;;-3.24;100.00
49104;BME280;34915;52.926;11.116;2022-12-18T13:09:08;103146.09;;;-3.22;100.00
49104;BME280;34915;52.926;11.116;2022-12-18T13:11:40;103135.00;;;-3.16;100.00
49104;BME280;34915;52.926;11.116;2022-12-18T13:14:40;103117.56;;;-3.23;100.00
49104;BME280;34915;52.926;11.116;2022-12-18T13:20:13;103108.97;;;-3.22;100.00
49104;BME280;34915;52.926;11.116;2022-12-18T13:22:48;103097.75;;;-3.20;100.00
49104;BME280;34915;52.926;11.116;2022-12-18T13:28:49;103097.16;;;-3.08;100.00
49104;BME280;34915;52.926;11.116;2022-12-18T13:31:09;103093.69;;;-3.10;100.00
49104;BME280;34915;52.926;11.116;2022-12-18T13:36:13;103089.28;;;-3.13;100.00
49104;BME280;34915;52.926;11.116;2022-12-18T13:38:40;103095.22;;;-3.18;100.00
49104;BME280;34915;52.926;11.116;2022-12-18T13:43:44;103068.31;;;-3.25;100.00
49104;BME280;34915;52.926;11.116;2022-12-18T13:49:41;103094.59;;;-3.45;100.00
49104;BME280;34915;52.926;11.116;2022-12-18T13:52:24;103098.03;;;-3.46;100.00
49104;BME280;34915;52.926;11.116;2022-12-18T13:54:55;103098.50;;;-3.62;100.00
49104;BME280;34915;52.926;11.116;2022-12-18T13:57:33;103097.81;;;-3.55;100.00
49104;BME280;34915;52.926;11.116;2022-12-18T14:02:45;103077.66;;;-3.68;100.00
49104;BME280;34915;52.926;11.116;2022-12-18T14:05:26;103076.97;;;-3.61;100.00
49104;BME280;34915;52.926;11.116;2022-12-18T14:07:53;103080.09;;;-3.74;100.00
49104;BME280;34915;52.926;11.116;2022-12-18T14:10:19;103084.47;;;-3.71;100.00
49104;BME280;34915;52.926;11.116;2022-12-18T14:12:49;103074.88;;;-3.75;100.00
49104;BME280;34915;52.926;11.116;2022-12-18T14:15:32;103064.34;;;-3.83;100.00
49104;BME280;34915;52.926;11.116;2022-12-18T14:18:09;103072.94;;;-3.84;100.00
49104;BME280;34915;52.926;11.116;2022-12-18T14:20:43;103085.13;;;-3.80;100.00
49104;BME280;34915;52.926;11.116;2022-12-18T14:23:44;103088.63;;;-3.78;100.00
49104;BME280;34915;52.926;11.116;2022-12-18T14:26:25;103098.81;;;-3.84;100.00